createdAt,value
2018-05-16T00:00:02.721Z,51.70
2018-05-16T00:01:02.886Z,68.80
2018-05-16T00:02:02.925Z,65.60
2018-05-16T00:03:02.868Z,66.90
2018-05-16T00:04:02.902Z,50.50
2018-05-16T00:05:02.939Z,83.20
2018-05-16T00:06:02.987Z,63.60
2018-05-16T00:07:03.144Z,43.30
2018-05-16T00:08:03.187Z,46.00
2018-05-16T00:09:03.142Z,47.70
2018-05-16T00:10:03.170Z,56.80
2018-05-16T00:11:03.214Z,65.80
2018-05-16T00:12:03.259Z,72.60
2018-05-16T00:13:03.416Z,73.40
2018-05-16T00:14:03.354Z,70.70
2018-05-16T00:15:03.402Z,71.90
2018-05-16T00:16:03.441Z,51.60
2018-05-16T00:17:03.516Z,47.20
2018-05-16T00:18:03.655Z,65.80
2018-05-16T00:19:03.599Z,49.00
2018-05-16T00:20:03.627Z,50.60
2018-05-16T00:21:03.690Z,74.60
2018-05-16T00:22:03.727Z,39.10
2018-05-16T00:23:03.875Z,40.60
2018-05-16T00:24:03.819Z,42.60
2018-05-16T00:25:03.850Z,63.20
2018-05-16T00:26:03.918Z,64.20
2018-05-16T00:27:03.940Z,54.80
2018-05-16T00:28:04.001Z,62.50
2018-05-16T00:29:04.134Z,107.70
2018-05-16T00:30:04.108Z,62.00
2018-05-16T00:31:04.128Z,52.70
2018-05-16T00:32:04.170Z,59.20
2018-05-16T00:33:04.228Z,57.40
2018-05-16T00:34:04.372Z,49.00
2018-05-16T00:35:04.433Z,58.20
2018-05-16T00:36:04.364Z,38.90
2018-05-16T00:37:04.412Z,50.20
2018-05-16T00:38:04.446Z,38.90
2018-05-16T00:39:04.504Z,46.90
2018-05-16T00:40:04.630Z,48.30
2018-05-16T00:41:04.690Z,45.60
2018-05-16T00:42:04.639Z,61.50
2018-05-16T00:43:04.666Z,68.70
2018-05-16T00:44:04.733Z,108.30
2018-05-16T00:45:04.761Z,61.10
2018-05-16T00:46:04.908Z,74.80
2018-05-16T00:47:04.949Z,102.30
2018-05-16T00:48:04.909Z,67.00
2018-05-16T00:49:05.049Z,63.30
2018-05-16T00:50:04.985Z,42.20
2018-05-16T00:51:05.050Z,88.20
2018-05-16T00:52:05.174Z,47.70
2018-05-16T00:53:05.222Z,52.00
2018-05-16T00:54:05.173Z,52.00
2018-05-16T00:55:05.210Z,78.60
2018-05-16T00:56:05.255Z,45.70
2018-05-16T00:57:05.307Z,47.50
2018-05-16T00:58:05.467Z,73.20
2018-05-16T00:59:05.393Z,63.40
2018-05-16T01:00:05.457Z,67.80
2018-05-16T01:01:05.498Z,66.00
2018-05-16T01:02:05.530Z,78.30
2018-05-16T01:03:05.693Z,62.30
2018-05-16T01:04:05.639Z,63.70
2018-05-16T01:05:05.679Z,95.30
2018-05-16T01:06:05.726Z,80.60
2018-05-16T01:07:05.760Z,68.60
2018-05-16T01:08:05.933Z,89.90
2018-05-16T01:09:05.860Z,70.80
2018-05-16T01:10:05.895Z,101.80
2018-05-16T01:11:05.949Z,104.70
2018-05-16T01:12:05.995Z,249.10
2018-05-16T01:13:06.154Z,64.20
2018-05-16T01:14:06.085Z,74.00
2018-05-16T01:15:06.120Z,80.20
2018-05-16T01:16:06.170Z,75.60
2018-05-16T01:17:06.209Z,90.00
2018-05-16T01:18:06.373Z,73.90
2018-05-16T01:19:06.332Z,69.80
2018-05-16T01:20:06.363Z,63.00
2018-05-16T01:21:06.396Z,55.40
2018-05-16T01:22:06.448Z,61.70
2018-05-16T01:23:06.593Z,55.30
2018-05-16T01:24:06.625Z,41.80
2018-05-16T01:25:06.575Z,66.20
2018-05-16T01:26:06.614Z,69.90
2018-05-16T01:27:06.673Z,77.80
2018-05-16T01:28:06.721Z,45.70
2018-05-16T01:29:06.860Z,36.40
2018-05-16T01:30:06.802Z,58.10
2018-05-16T01:31:06.842Z,66.20
2018-05-16T01:32:06.887Z,56.70
2018-05-16T01:33:06.951Z,51.20
2018-05-16T01:34:06.976Z,71.90
2018-05-16T01:35:07.144Z,56.20
2018-05-16T01:36:07.083Z,44.30
2018-05-16T01:37:07.134Z,49.10
2018-05-16T01:38:07.169Z,52.40
2018-05-16T01:39:07.205Z,38.50
2018-05-16T01:40:07.362Z,37.90
2018-05-16T01:41:07.405Z,70.20
2018-05-16T01:42:07.341Z,61.90
2018-05-16T01:43:07.399Z,42.60
2018-05-16T01:44:07.430Z,39.90
2018-05-16T01:45:07.490Z,43.40
2018-05-16T01:46:07.518Z,62.50
2018-05-16T01:47:07.579Z,62.80
2018-05-16T01:48:07.611Z,52.10
2018-05-16T01:49:07.669Z,60.40
2018-05-16T01:50:07.705Z,54.10
2018-05-16T01:51:07.845Z,57.90
2018-05-16T01:52:07.806Z,55.80
2018-05-16T01:53:07.867Z,57.50
2018-05-16T01:54:07.880Z,50.90
2018-05-16T01:55:07.931Z,49.70
2018-05-16T01:56:08.080Z,39.80
2018-05-16T01:57:08.119Z,62.70
2018-05-16T01:58:08.075Z,42.70
2018-05-16T01:59:08.113Z,56.60
2018-05-16T02:00:08.180Z,64.40
2018-05-16T02:01:08.212Z,56.50
2018-05-16T02:02:08.241Z,127.90
2018-05-16T02:03:08.405Z,47.30
2018-05-16T02:04:08.353Z,57.70
2018-05-16T02:05:08.395Z,68.10
2018-05-16T02:06:08.440Z,59.10
2018-05-16T02:07:08.482Z,51.90
2018-05-16T02:08:08.627Z,65.50
2018-05-16T02:09:08.580Z,56.90
2018-05-16T02:10:08.617Z,76.70
2018-05-16T02:11:08.674Z,62.80
2018-05-16T02:12:08.708Z,62.80
2018-05-16T02:13:08.848Z,163.00
2018-05-16T02:14:08.812Z,96.20
2018-05-16T02:15:08.832Z,134.60
2018-05-16T02:16:08.880Z,123.70
2018-05-16T02:17:08.952Z,138.70
2018-05-16T02:18:09.076Z,124.90
2018-05-16T02:19:09.029Z,100.30
2018-05-16T02:20:09.051Z,112.10
2018-05-16T02:21:09.113Z,113.60
2018-05-16T02:22:09.154Z,115.80
2018-05-16T02:23:09.193Z,94.20
2018-05-16T02:24:09.335Z,80.60
2018-05-16T02:25:09.297Z,83.60
2018-05-16T02:26:09.339Z,112.00
2018-05-16T02:27:09.387Z,86.60
2018-05-16T02:28:09.497Z,74.90
2018-05-16T02:29:09.555Z,98.60
2018-05-16T02:30:09.615Z,75.90
2018-05-16T02:31:09.568Z,106.80
2018-05-16T02:32:09.612Z,96.40
2018-05-16T02:33:09.635Z,81.30
2018-05-16T02:34:09.695Z,91.60
2018-05-16T02:35:09.823Z,70.90
2018-05-16T02:36:09.792Z,78.20
2018-05-16T02:37:09.822Z,148.50
2018-05-16T02:38:09.867Z,55.30
2018-05-16T02:39:09.906Z,71.00
2018-05-16T02:40:10.064Z,222.60
2018-05-16T02:41:09.994Z,58.50
2018-05-16T02:42:10.055Z,45.80
2018-05-16T02:43:10.117Z,47.50
2018-05-16T02:44:10.144Z,42.00
2018-05-16T02:45:10.283Z,46.10
2018-05-16T02:46:10.346Z,36.80
2018-05-16T02:47:10.296Z,41.40
2018-05-16T02:48:10.325Z,54.10
2018-05-16T02:49:10.369Z,61.40
2018-05-16T02:50:10.412Z,82.00
2018-05-16T02:51:10.583Z,81.50
2018-05-16T02:52:10.516Z,76.20
2018-05-16T02:53:10.535Z,35.30
2018-05-16T02:54:10.586Z,43.70
2018-05-16T02:55:10.623Z,50.70
2018-05-16T02:56:10.692Z,67.40
2018-05-16T02:57:10.829Z,55.70
2018-05-16T02:58:10.878Z,103.30
2018-05-16T02:59:10.806Z,56.40
2018-05-16T03:00:10.872Z,44.70
2018-05-16T03:01:10.908Z,35.50
2018-05-16T03:02:10.945Z,43.70
2018-05-16T03:03:11.089Z,35.70
2018-05-16T03:04:11.143Z,32.10
2018-05-16T03:05:11.089Z,38.20
2018-05-16T03:06:11.117Z,45.10
2018-05-16T03:07:11.176Z,35.50
2018-05-16T03:08:11.207Z,46.30
2018-05-16T03:09:11.354Z,76.60
2018-05-16T03:10:11.411Z,38.90
2018-05-16T03:11:11.355Z,49.20
2018-05-16T03:12:11.387Z,50.40
2018-05-16T03:13:11.435Z,53.10
2018-05-16T03:14:11.490Z,42.90
2018-05-16T03:15:11.644Z,40.30
2018-05-16T03:16:11.667Z,39.50
2018-05-16T03:17:11.628Z,45.00
2018-05-16T03:18:11.685Z,36.80
2018-05-16T03:19:11.702Z,44.10
2018-05-16T03:20:11.771Z,49.00
2018-05-16T03:21:11.906Z,34.30
2018-05-16T03:22:11.852Z,53.50
2018-05-16T03:23:11.883Z,34.00
2018-05-16T03:24:11.933Z,42.40
2018-05-16T03:25:11.995Z,55.30
2018-05-16T03:26:12.021Z,47.50
2018-05-16T03:27:12.161Z,40.40
2018-05-16T03:28:12.120Z,66.50
2018-05-16T03:29:12.165Z,33.10
2018-05-16T03:30:12.210Z,33.90
2018-05-16T03:31:12.241Z,33.60
2018-05-16T03:32:12.285Z,36.40
2018-05-16T03:33:12.429Z,34.70
2018-05-16T03:34:12.490Z,44.70
2018-05-16T03:35:12.426Z,46.90
2018-05-16T03:36:12.464Z,50.30
2018-05-16T03:37:12.509Z,62.70
2018-05-16T03:38:12.565Z,56.10
2018-05-16T03:39:12.597Z,45.20
2018-05-16T03:40:12.765Z,34.20
2018-05-16T03:41:12.711Z,41.30
2018-05-16T03:42:12.732Z,45.70
2018-05-16T03:43:12.806Z,41.00
2018-05-16T03:44:12.838Z,39.80
2018-05-16T03:45:12.985Z,40.80
2018-05-16T03:46:12.912Z,52.10
2018-05-16T03:47:12.981Z,52.10
2018-05-16T03:48:13.000Z,48.70
2018-05-16T03:49:13.045Z,42.60
2018-05-16T03:50:13.089Z,45.30
2018-05-16T03:51:13.241Z,57.20
2018-05-16T03:52:13.306Z,59.70
2018-05-16T03:53:13.224Z,34.70
2018-05-16T03:54:13.284Z,49.00
2018-05-16T03:55:13.313Z,63.00
2018-05-16T03:56:13.372Z,39.60
2018-05-16T03:57:13.522Z,79.30
2018-05-16T03:58:13.549Z,45.00
2018-05-16T03:59:13.508Z,60.70
2018-05-16T04:00:13.551Z,34.30
2018-05-16T04:01:13.606Z,43.40
2018-05-16T04:02:13.648Z,48.20
2018-05-16T04:03:13.789Z,31.60
2018-05-16T04:04:13.718Z,33.20
2018-05-16T04:05:13.762Z,54.10
2018-05-16T04:06:13.822Z,32.30
2018-05-16T04:07:13.867Z,35.90
2018-05-16T04:08:14.022Z,38.20
2018-05-16T04:09:13.943Z,45.70
2018-05-16T04:10:13.993Z,46.00
2018-05-16T04:11:14.031Z,44.20
2018-05-16T04:12:14.090Z,41.50
2018-05-16T04:13:14.243Z,49.80
2018-05-16T04:14:14.271Z,33.00
2018-05-16T04:15:14.225Z,38.60
2018-05-16T04:16:14.269Z,39.40
2018-05-16T04:17:14.322Z,39.90
2018-05-16T04:18:14.358Z,44.00
2018-05-16T04:19:14.497Z,39.40
2018-05-16T04:20:14.559Z,45.60
2018-05-16T04:21:14.500Z,39.20
2018-05-16T04:22:14.552Z,39.40
2018-05-16T04:23:14.576Z,49.00
2018-05-16T04:24:14.612Z,41.50
2018-05-16T04:25:14.760Z,53.60
2018-05-16T04:26:14.717Z,33.50
2018-05-16T04:27:14.761Z,40.20
2018-05-16T04:28:14.791Z,50.10
2018-05-16T04:29:14.845Z,48.70
2018-05-16T04:30:14.995Z,48.70
2018-05-16T04:31:14.948Z,61.90
2018-05-16T04:32:14.993Z,41.70
2018-05-16T04:33:15.016Z,38.80
2018-05-16T04:34:15.074Z,33.00
2018-05-16T04:35:15.234Z,38.20
2018-05-16T04:36:15.264Z,49.40
2018-05-16T04:37:15.204Z,54.30
2018-05-16T04:38:15.246Z,42.70
2018-05-16T04:39:15.298Z,60.80
2018-05-16T04:40:15.343Z,52.30
2018-05-16T04:41:15.474Z,46.30
2018-05-16T04:42:15.533Z,50.70
2018-05-16T04:43:15.572Z,53.60
2018-05-16T04:44:15.506Z,45.00
2018-05-16T04:45:15.559Z,58.70
2018-05-16T04:46:15.607Z,46.40
2018-05-16T04:47:15.820Z,46.60
2018-05-16T04:48:15.792Z,82.80
2018-05-16T04:49:15.738Z,57.70
2018-05-16T04:50:15.775Z,45.30
2018-05-16T04:51:15.820Z,86.10
2018-05-16T04:52:15.865Z,56.00
2018-05-16T04:53:16.010Z,56.60
2018-05-16T04:54:16.082Z,55.20
2018-05-16T04:55:15.998Z,69.90
2018-05-16T04:56:16.058Z,74.00
2018-05-16T04:57:16.090Z,81.40
2018-05-16T04:58:16.134Z,68.60
2018-05-16T04:59:16.299Z,67.40
2018-05-16T05:00:16.238Z,67.70
2018-05-16T05:01:16.281Z,62.40
2018-05-16T05:02:16.326Z,116.80
2018-05-16T05:03:16.366Z,64.40
2018-05-16T05:04:16.525Z,61.80
2018-05-16T05:05:16.460Z,68.50
2018-05-16T05:06:16.504Z,84.90
2018-05-16T05:07:16.545Z,64.70
2018-05-16T05:08:16.599Z,73.10
2018-05-16T05:09:16.727Z,68.50
2018-05-16T05:10:16.694Z,75.10
2018-05-16T05:11:16.732Z,62.80
2018-05-16T05:12:16.764Z,84.80
2018-05-16T05:13:16.807Z,83.60
2018-05-16T05:14:16.974Z,64.70
2018-05-16T05:15:16.917Z,69.80
2018-05-16T05:16:16.941Z,75.50
2018-05-16T05:17:17.003Z,74.10
2018-05-16T05:18:17.170Z,80.50
2018-05-16T05:19:17.199Z,83.90
2018-05-16T05:20:17.123Z,86.10
2018-05-16T05:21:17.168Z,84.70
2018-05-16T05:22:17.228Z,73.60
2018-05-16T05:23:17.259Z,76.00
2018-05-16T05:24:17.417Z,70.20
2018-05-16T05:25:17.357Z,87.80
2018-05-16T05:26:17.409Z,65.30
2018-05-16T05:27:17.446Z,81.30
2018-05-16T05:28:17.498Z,72.20
2018-05-16T05:29:17.630Z,81.90
2018-05-16T05:30:17.683Z,74.60
2018-05-16T05:31:17.627Z,75.90
2018-05-16T05:32:17.680Z,55.90
2018-05-16T05:33:17.719Z,71.70
2018-05-16T05:34:17.756Z,60.40
2018-05-16T05:35:17.916Z,129.10
2018-05-16T05:36:17.862Z,72.10
2018-05-16T05:37:17.914Z,76.30
2018-05-16T05:38:17.966Z,47.00
2018-05-16T05:39:17.984Z,65.30
2018-05-16T05:40:18.048Z,55.50
2018-05-16T05:41:18.172Z,84.80
2018-05-16T05:42:18.239Z,58.60
2018-05-16T05:43:18.205Z,61.20
2018-05-16T05:44:18.232Z,63.80
2018-05-16T05:45:18.252Z,66.80
2018-05-16T05:46:18.313Z,83.60
2018-05-16T05:47:18.451Z,71.60
2018-05-16T05:48:18.503Z,79.10
2018-05-16T05:49:18.521Z,81.80
2018-05-16T05:50:18.506Z,74.70
2018-05-16T05:51:18.537Z,72.90
2018-05-16T05:52:18.591Z,73.90
2018-05-16T05:53:18.728Z,84.10
2018-05-16T05:54:18.673Z,131.40
2018-05-16T05:55:18.719Z,68.20
2018-05-16T05:56:18.759Z,85.10
2018-05-16T05:57:18.796Z,91.40
2018-05-16T05:58:18.957Z,81.20
2018-05-16T05:59:18.888Z,89.20
2018-05-16T06:00:18.948Z,91.30
2018-05-16T06:01:18.980Z,100.40
2018-05-16T06:02:19.030Z,83.50
2018-05-16T06:03:19.068Z,87.00
2018-05-16T06:04:19.278Z,91.10
2018-05-16T06:05:19.261Z,153.90
2018-05-16T06:06:19.204Z,89.90
2018-05-16T06:07:19.248Z,87.20
2018-05-16T06:08:19.309Z,88.20
2018-05-16T06:09:19.353Z,78.60
2018-05-16T06:10:19.511Z,86.10
2018-05-16T06:11:19.457Z,72.50
2018-05-16T06:12:19.475Z,74.90
2018-05-16T06:13:19.535Z,95.90
2018-05-16T06:14:19.572Z,74.10
2018-05-16T06:15:19.732Z,76.70
2018-05-16T06:16:19.656Z,87.10
2018-05-16T06:17:19.718Z,80.70
2018-05-16T06:18:19.762Z,76.80
2018-05-16T06:19:19.805Z,70.30
2018-05-16T06:20:19.938Z,67.30
2018-05-16T06:21:19.886Z,66.40
2018-05-16T06:22:19.927Z,57.80
2018-05-16T06:23:19.973Z,61.20
2018-05-16T06:24:20.032Z,60.50
2018-05-16T06:25:20.183Z,74.30
2018-05-16T06:26:20.134Z,60.10
2018-05-16T06:27:20.311Z,66.40
2018-05-16T06:28:20.204Z,62.40
2018-05-16T06:29:20.246Z,70.10
2018-05-16T06:30:20.309Z,63.60
2018-05-16T06:31:20.437Z,67.10
2018-05-16T06:32:20.477Z,60.90
2018-05-16T06:33:20.443Z,71.00
2018-05-16T06:34:20.480Z,76.90
2018-05-16T06:35:20.518Z,76.30
2018-05-16T06:36:20.556Z,68.30
2018-05-16T06:37:20.772Z,42.10
2018-05-16T06:38:20.646Z,42.60
2018-05-16T06:39:20.690Z,49.10
2018-05-16T06:40:20.749Z,50.70
2018-05-16T06:41:20.794Z,46.90
2018-05-16T06:42:21.125Z,66.60
2018-05-16T06:43:20.874Z,66.60
2018-05-16T06:44:20.921Z,70.50
2018-05-16T06:45:20.968Z,58.20
2018-05-16T06:46:21.069Z,38.20
2018-05-16T06:47:21.180Z,37.30
2018-05-16T06:48:21.246Z,47.10
2018-05-16T06:49:21.156Z,56.80
2018-05-16T06:50:21.200Z,44.60
2018-05-16T06:51:21.230Z,51.90
2018-05-16T06:52:21.287Z,54.60
2018-05-16T06:53:21.419Z,43.60
2018-05-16T06:54:21.485Z,56.70
2018-05-16T06:55:21.416Z,42.60
2018-05-16T06:56:21.505Z,43.60
2018-05-16T06:57:21.496Z,61.60
2018-05-16T06:58:21.541Z,42.30
2018-05-16T06:59:21.687Z,69.70
2018-05-16T07:00:21.744Z,58.00
2018-05-16T07:01:21.690Z,53.00
2018-05-16T07:02:21.720Z,63.10
2018-05-16T07:03:21.780Z,63.60
2018-05-16T07:04:21.815Z,43.40
2018-05-16T07:05:21.956Z,48.60
2018-05-16T07:06:22.015Z,46.60
2018-05-16T07:07:21.945Z,56.30
2018-05-16T07:08:21.990Z,46.90
2018-05-16T07:09:22.042Z,44.30
2018-05-16T07:10:22.091Z,40.50
2018-05-16T07:11:22.238Z,34.40
2018-05-16T07:12:22.182Z,46.00
2018-05-16T07:13:22.222Z,37.30
2018-05-16T07:14:22.256Z,39.00
2018-05-16T07:15:22.303Z,42.30
2018-05-16T07:16:22.463Z,38.40
2018-05-16T07:17:22.406Z,36.30
2018-05-16T07:18:22.452Z,38.30
2018-05-16T07:19:22.481Z,46.10
2018-05-16T07:20:22.525Z,47.20
2018-05-16T07:21:22.677Z,43.00
2018-05-16T07:22:22.628Z,38.70
2018-05-16T07:23:22.666Z,47.80
2018-05-16T07:24:22.718Z,40.80
2018-05-16T07:25:22.750Z,34.10
2018-05-16T07:26:22.793Z,38.20
2018-05-16T07:27:22.945Z,32.40
2018-05-16T07:28:22.884Z,48.40
2018-05-16T07:29:22.942Z,35.10
2018-05-16T07:30:22.990Z,33.90
2018-05-16T07:31:23.030Z,61.00
2018-05-16T07:32:23.222Z,47.80
2018-05-16T07:33:23.119Z,55.20
2018-05-16T07:34:23.164Z,45.10
2018-05-16T07:35:23.196Z,36.40
2018-05-16T07:36:23.252Z,44.00
2018-05-16T07:37:23.402Z,49.80
2018-05-16T07:38:23.341Z,32.70
2018-05-16T07:39:23.377Z,40.20
2018-05-16T07:40:23.427Z,43.10
2018-05-16T07:41:23.475Z,49.70
2018-05-16T07:42:23.623Z,48.70
2018-05-16T07:43:23.563Z,38.70
2018-05-16T07:44:23.609Z,34.50
2018-05-16T07:45:23.647Z,33.70
2018-05-16T07:46:23.704Z,52.50
2018-05-16T07:47:23.828Z,50.50
2018-05-16T07:48:23.887Z,44.80
2018-05-16T07:49:23.824Z,40.70
2018-05-16T07:50:23.877Z,48.00
2018-05-16T07:51:23.919Z,42.80
2018-05-16T07:52:23.950Z,50.00
2018-05-16T07:53:24.094Z,85.40
2018-05-16T07:54:24.045Z,47.80
2018-05-16T07:55:24.090Z,41.90
2018-05-16T07:56:24.143Z,40.30
2018-05-16T07:57:24.173Z,39.40
2018-05-16T07:58:24.321Z,33.30
2018-05-16T07:59:24.260Z,35.90
2018-05-16T08:00:24.307Z,41.50
2018-05-16T08:01:24.372Z,39.20
2018-05-16T08:02:24.397Z,58.70
2018-05-16T08:03:24.559Z,42.00
2018-05-16T08:04:24.496Z,51.70
2018-05-16T08:05:24.550Z,40.60
2018-05-16T08:06:24.592Z,43.00
2018-05-16T08:07:24.615Z,43.60
2018-05-16T08:08:24.761Z,56.10
2018-05-16T08:09:24.724Z,44.20
2018-05-16T08:10:24.764Z,53.70
2018-05-16T08:11:24.810Z,51.70
2018-05-16T08:12:24.846Z,42.80
2018-05-16T08:13:25.013Z,45.60
2018-05-16T08:14:25.049Z,36.50
2018-05-16T08:15:24.972Z,43.70
2018-05-16T08:16:25.018Z,44.10
2018-05-16T08:17:25.068Z,49.00
2018-05-16T08:18:25.106Z,48.20
2018-05-16T08:19:25.280Z,45.60
2018-05-16T08:20:25.215Z,42.70
2018-05-16T08:21:25.339Z,41.80
2018-05-16T08:22:25.298Z,57.10
2018-05-16T08:23:25.340Z,40.90
2018-05-16T08:24:25.473Z,45.30
2018-05-16T08:25:25.525Z,54.90
2018-05-16T08:26:25.475Z,40.80
2018-05-16T08:27:25.506Z,38.10
2018-05-16T08:28:25.558Z,83.50
2018-05-16T08:29:25.650Z,33.80
2018-05-16T08:30:25.803Z,40.70
2018-05-16T08:31:26.042Z,40.10
2018-05-16T08:32:25.746Z,30.80
2018-05-16T08:33:25.795Z,44.40
2018-05-16T08:34:25.830Z,44.00
2018-05-16T08:35:25.860Z,42.80
2018-05-16T08:36:26.021Z,38.10
2018-05-16T08:37:26.065Z,53.10
2018-05-16T08:38:26.010Z,37.80
2018-05-16T08:39:26.061Z,36.40
2018-05-16T08:40:26.090Z,35.20
2018-05-16T08:41:26.135Z,39.00
2018-05-16T08:42:26.537Z,40.80
2018-05-16T08:43:26.240Z,37.70
2018-05-16T08:44:26.269Z,39.10
2018-05-16T08:45:26.322Z,41.80
2018-05-16T08:46:26.353Z,35.90
2018-05-16T08:47:26.511Z,33.20
2018-05-16T08:48:26.453Z,44.40
2018-05-16T08:49:26.493Z,34.60
2018-05-16T08:50:26.570Z,36.80
2018-05-16T08:51:26.586Z,40.40
2018-05-16T08:52:26.730Z,43.70
2018-05-16T08:53:26.776Z,39.50
2018-05-16T08:54:26.714Z,38.60
2018-05-16T08:55:26.750Z,34.60
2018-05-16T08:56:26.812Z,40.40
2018-05-16T08:57:26.840Z,33.10
2018-05-16T08:58:26.884Z,37.50
2018-05-16T08:59:26.941Z,37.30
2018-05-16T09:00:26.976Z,40.70
2018-05-16T09:01:27.015Z,49.20
2018-05-16T09:02:27.058Z,41.50
2018-05-16T09:03:27.218Z,45.30
2018-05-16T09:04:27.161Z,53.30
2018-05-16T09:05:27.207Z,41.30
2018-05-16T09:06:27.249Z,40.90
2018-05-16T09:07:27.284Z,36.40
2018-05-16T09:08:27.446Z,58.30
2018-05-16T09:09:27.478Z,53.90
2018-05-16T09:10:27.428Z,44.20
2018-05-16T09:11:27.457Z,40.60
2018-05-16T09:12:27.514Z,44.60
2018-05-16T09:13:27.561Z,64.50
2018-05-16T09:14:27.688Z,45.80
2018-05-16T09:15:27.634Z,47.90
2018-05-16T09:16:27.686Z,43.60
2018-05-16T09:17:27.754Z,47.10
2018-05-16T09:18:27.765Z,36.70
2018-05-16T09:19:27.910Z,150.20
2018-05-16T09:20:27.868Z,46.90
2018-05-16T09:21:27.898Z,38.70
2018-05-16T09:22:27.957Z,36.40
2018-05-16T09:23:27.993Z,32.60
2018-05-16T09:24:28.153Z,36.60
2018-05-16T09:25:28.194Z,41.30
2018-05-16T09:26:28.138Z,47.60
2018-05-16T09:27:28.178Z,45.10
2018-05-16T09:28:28.227Z,36.60
2018-05-16T09:29:28.273Z,41.30
2018-05-16T09:30:28.409Z,81.90
2018-05-16T09:31:28.464Z,42.10
2018-05-16T09:32:28.397Z,36.60
2018-05-16T09:33:28.455Z,39.30
2018-05-16T09:34:28.482Z,46.30
2018-05-16T09:35:28.518Z,93.00
2018-05-16T09:36:28.686Z,42.90
2018-05-16T09:37:28.709Z,52.90
2018-05-16T09:38:28.649Z,42.20
2018-05-16T09:39:28.696Z,44.60
2018-05-16T09:40:28.739Z,44.40
2018-05-16T09:41:28.797Z,55.80
2018-05-16T09:42:28.991Z,44.60
2018-05-16T09:43:28.986Z,53.20
2018-05-16T09:44:28.913Z,43.40
2018-05-16T09:45:28.980Z,43.80
2018-05-16T09:46:29.005Z,65.60
2018-05-16T09:47:29.060Z,46.10
2018-05-16T09:48:29.191Z,47.30
2018-05-16T09:49:29.136Z,48.30
2018-05-16T09:50:29.208Z,47.30
2018-05-16T09:51:29.325Z,42.00
2018-05-16T09:52:29.270Z,47.50
2018-05-16T09:53:29.321Z,59.70
2018-05-16T09:54:29.460Z,57.40
2018-05-16T09:55:29.417Z,78.90
2018-05-16T09:56:29.471Z,165.60
2018-05-16T09:57:29.494Z,148.10
2018-05-16T09:58:29.537Z,174.40
2018-05-16T09:59:29.696Z,64.70
2018-05-16T10:00:29.746Z,91.50
2018-05-16T10:01:29.670Z,84.70
2018-05-16T10:02:29.723Z,74.40
2018-05-16T10:03:29.777Z,77.40
2018-05-16T10:04:29.808Z,68.10
2018-05-16T10:05:29.959Z,74.10
2018-05-16T10:06:30.003Z,71.80
2018-05-16T10:07:29.956Z,64.00
2018-05-16T10:08:29.985Z,87.70
2018-05-16T10:09:30.045Z,92.10
2018-05-16T10:10:30.076Z,110.80
2018-05-16T10:11:30.220Z,113.60
2018-05-16T10:12:30.267Z,81.60
2018-05-16T10:13:30.217Z,65.20
2018-05-16T10:14:30.264Z,74.80
2018-05-16T10:15:30.318Z,107.80
2018-05-16T10:16:30.360Z,67.40
2018-05-16T10:17:30.508Z,102.30
2018-05-16T10:18:30.539Z,75.50
2018-05-16T10:19:30.496Z,69.70
2018-05-16T10:20:30.546Z,72.50
2018-05-16T10:21:30.595Z,96.10
2018-05-16T10:22:30.626Z,70.40
2018-05-16T10:23:30.778Z,70.20
2018-05-16T10:24:30.833Z,85.40
2018-05-16T10:25:30.779Z,64.10
2018-05-16T10:26:30.801Z,63.50
2018-05-16T10:27:30.849Z,94.10
2018-05-16T10:28:30.913Z,64.80
2018-05-16T10:29:31.054Z,99.00
2018-05-16T10:30:31.106Z,75.80
2018-05-16T10:31:31.030Z,72.00
2018-05-16T10:32:31.094Z,72.40
2018-05-16T10:33:31.145Z,95.20
2018-05-16T10:34:31.176Z,89.50
2018-05-16T10:35:31.316Z,90.10
2018-05-16T10:36:31.288Z,79.90
2018-05-16T10:37:31.308Z,71.00
2018-05-16T10:38:31.372Z,90.20
2018-05-16T10:39:31.426Z,412.40
2018-05-16T10:40:31.447Z,92.60
2018-05-16T10:41:31.648Z,94.40
2018-05-16T10:42:31.637Z,95.80
2018-05-16T10:43:31.603Z,83.90
2018-05-16T10:44:31.628Z,93.10
2018-05-16T10:45:31.698Z,97.20
2018-05-16T10:46:31.733Z,71.70
2018-05-16T10:47:31.875Z,117.50
2018-05-16T10:48:31.927Z,82.40
2018-05-16T10:49:31.861Z,98.10
2018-05-16T10:50:31.937Z,84.40
2018-05-16T10:51:31.960Z,267.40
2018-05-16T10:52:32.179Z,110.50
2018-05-16T10:53:32.164Z,108.40
2018-05-16T10:54:32.193Z,73.80
2018-05-16T10:55:32.141Z,124.20
2018-05-16T10:56:32.193Z,109.80
2018-05-16T10:57:32.251Z,234.20
2018-05-16T10:58:32.286Z,115.80
2018-05-16T10:59:32.433Z,119.70
2018-05-16T11:00:32.487Z,116.40
2018-05-16T11:01:32.423Z,282.80
2018-05-16T11:02:32.477Z,85.90
2018-05-16T11:03:32.540Z,115.50
2018-05-16T11:04:32.565Z,115.40
2018-05-16T11:05:32.628Z,106.90
2018-05-16T11:07:32.725Z,167.90
2018-05-16T11:08:32.779Z,99.80
2018-05-16T11:09:32.807Z,118.20
2018-05-16T11:10:32.900Z,105.80
2018-05-16T11:11:33.028Z,110.20
2018-05-16T11:12:33.069Z,103.80
2018-05-16T11:13:33.019Z,274.10
2018-05-16T11:14:33.068Z,167.80
2018-05-16T11:15:33.102Z,188.50
2018-05-16T11:16:33.167Z,204.30
2018-05-16T11:17:33.310Z,282.40
2018-05-16T11:18:33.250Z,172.30
2018-05-16T11:19:33.315Z,228.30
2018-05-16T11:20:33.372Z,189.10
2018-05-16T11:21:33.418Z,304.90
2018-05-16T11:22:33.562Z,204.10
2018-05-16T11:23:33.512Z,262.80
2018-05-16T11:24:33.556Z,201.70
2018-05-16T11:25:33.614Z,263.10
2018-05-16T11:26:33.663Z,184.50
2018-05-16T11:27:33.807Z,378.70
2018-05-16T11:28:33.848Z,240.80
2018-05-16T11:29:33.821Z,519.00
2018-05-16T11:30:33.847Z,475.70
2018-05-16T11:31:33.898Z,251.30
2018-05-16T11:32:33.975Z,222.20
2018-05-16T11:33:34.004Z,235.70
2018-05-16T11:34:34.167Z,431.70
2018-05-16T11:35:34.118Z,313.50
2018-05-16T11:36:34.164Z,287.40
2018-05-16T11:37:34.217Z,377.70
2018-05-16T11:38:34.242Z,276.30
2018-05-16T11:39:34.415Z,423.10
2018-05-16T11:40:34.448Z,445.30
2018-05-16T11:41:34.393Z,362.80
2018-05-16T11:42:34.446Z,293.30
2018-05-16T11:43:34.504Z,341.40
2018-05-16T11:44:34.568Z,324.20
2018-05-16T11:45:34.702Z,371.60
2018-05-16T11:46:34.753Z,266.80
2018-05-16T11:47:34.685Z,368.40
2018-05-16T11:48:34.757Z,284.50
2018-05-16T11:49:34.792Z,346.00
2018-05-16T11:50:34.838Z,298.20
2018-05-16T11:51:34.982Z,270.40
2018-05-16T11:52:34.928Z,297.30
2018-05-16T11:53:34.993Z,253.10
2018-05-16T11:54:35.041Z,384.60
2018-05-16T11:55:35.098Z,457.60
2018-05-16T11:56:35.229Z,262.10
2018-05-16T11:57:35.194Z,269.30
2018-05-16T11:58:35.237Z,175.80
2018-05-16T11:59:35.274Z,303.40
2018-05-16T12:00:35.327Z,268.60
2018-05-16T12:01:35.470Z,247.60
2018-05-16T12:02:35.530Z,191.00
2018-05-16T12:03:35.485Z,366.30
2018-05-16T12:04:35.527Z,236.60
2018-05-16T12:05:35.572Z,293.90
2018-05-16T12:06:35.617Z,249.90
2018-05-16T12:07:35.774Z,360.60
2018-05-16T12:08:35.728Z,197.10
2018-05-16T12:09:35.756Z,284.10
2018-05-16T12:10:35.803Z,209.20
2018-05-16T12:11:35.875Z,280.40
2018-05-16T12:12:36.025Z,235.10
2018-05-16T12:13:35.957Z,238.60
2018-05-16T12:14:36.011Z,166.00
2018-05-16T12:15:36.063Z,306.80
2018-05-16T12:16:36.118Z,220.40
2018-05-16T12:17:36.256Z,206.10
2018-05-16T12:18:36.304Z,603.40
2018-05-16T12:19:36.245Z,267.60
2018-05-16T12:20:36.309Z,124.10
2018-05-16T12:21:36.440Z,185.70
2018-05-16T12:22:36.406Z,148.20
2018-05-16T12:23:36.540Z,143.10
2018-05-16T12:24:36.498Z,234.10
2018-05-16T12:25:36.547Z,159.50
2018-05-16T12:26:36.592Z,153.70
2018-05-16T12:27:36.641Z,141.70
2018-05-16T12:28:36.712Z,140.70
2018-05-16T12:29:36.856Z,213.10
2018-05-16T12:30:36.790Z,122.90
2018-05-16T12:31:36.833Z,157.50
2018-05-16T12:32:36.886Z,172.70
2018-05-16T12:33:36.945Z,148.80
2018-05-16T12:34:36.993Z,169.50
2018-05-16T12:35:37.152Z,201.60
2018-05-16T12:36:37.279Z,170.20
2018-05-16T12:37:37.139Z,459.90
2018-05-16T12:38:37.193Z,364.70
2018-05-16T12:39:37.244Z,249.50
2018-05-16T12:40:37.292Z,132.50
2018-05-16T12:41:37.438Z,148.30
2018-05-16T12:42:37.371Z,247.80
2018-05-16T12:43:37.450Z,177.30
2018-05-16T12:44:37.484Z,240.60
2018-05-16T12:45:37.548Z,213.90
2018-05-16T12:46:37.582Z,225.80
2018-05-16T12:47:37.619Z,206.20
2018-05-16T12:48:37.693Z,248.90